sensor_id;sensor_type;location;lat;lon;timestamp;temperature;humidity
6581;DHT22;3324;50.796;7.228;2024-02-23T00:00:49;7.90;99.90
6581;DHT22;3324;50.796;7.228;2024-02-23T00:03:14;7.80;99.90
6581;DHT22;3324;50.796;7.228;2024-02-23T00:05:40;7.70;99.90
6581;DHT22;3324;50.796;7.228;2024-02-23T00:08:06;7.60;99.90
6581;DHT22;3324;50.796;7.228;2024-02-23T00:10:32;7.60;99.90
6581;DHT22;3324;50.796;7.228;2024-02-23T00:12:57;7.50;99.90
6581;DHT22;3324;50.796;7.228;2024-02-23T00:15:23;7.50;99.90
6581;DHT22;3324;50.796;7.228;2024-02-23T00:17:50;7.40;99.90
6581;DHT22;3324;50.796;7.228;2024-02-23T00:20:16;7.40;99.90
6581;DHT22;3324;50.796;7.228;2024-02-23T00:22:41;7.40;99.90
6581;DHT22;3324;50.796;7.228;2024-02-23T00:25:07;7.30;99.90
6581;DHT22;3324;50.796;7.228;2024-02-23T00:27:33;7.30;99.90
6581;DHT22;3324;50.796;7.228;2024-02-23T00:29:58;7.30;99.90
6581;DHT22;3324;50.796;7.228;2024-02-23T00:32:24;7.40;99.90
6581;DHT22;3324;50.796;7.228;2024-02-23T00:34:49;7.30;99.90
6581;DHT22;3324;50.796;7.228;2024-02-23T00:37:15;7.40;99.90
6581;DHT22;3324;50.796;7.228;2024-02-23T00:39:40;7.40;99.90
6581;DHT22;3324;50.796;7.228;2024-02-23T00:42:06;7.40;99.90
6581;DHT22;3324;50.796;7.228;2024-02-23T00:44:32;7.40;99.90
6581;DHT22;3324;50.796;7.228;2024-02-23T00:46:58;7.30;99.90
6581;DHT22;3324;50.796;7.228;2024-02-23T00:49:26;7.40;99.90
6581;DHT22;3324;50.796;7.228;2024-02-23T00:51:52;7.30;99.90
6581;DHT22;3324;50.796;7.228;2024-02-23T00:54:17;7.30;99.90
6581;DHT22;3324;50.796;7.228;2024-02-23T00:56:43;7.20;99.90
6581;DHT22;3324;50.796;7.228;2024-02-23T00:59:08;7.20;99.90
6581;DHT22;3324;50.796;7.228;2024-02-23T01:01:34;7.20;99.90
6581;DHT22;3324;50.796;7.228;2024-02-23T01:04:00;7.20;99.90
6581;DHT22;3324;50.796;7.228;2024-02-23T01:06:25;7.20;99.90
6581;DHT22;3324;50.796;7.228;2024-02-23T01:08:52;7.10;99.90
6581;DHT22;3324;50.796;7.228;2024-02-23T01:11:18;7.10;99.90
6581;DHT22;3324;50.796;7.228;2024-02-23T01:13:44;7.10;99.90
6581;DHT22;3324;50.796;7.228;2024-02-23T01:16:09;7.10;99.90
6581;DHT22;3324;50.796;7.228;2024-02-23T01:18:35;7.10;99.90
6581;DHT22;3324;50.796;7.228;2024-02-23T01:21:00;7.10;99.90
6581;DHT22;3324;50.796;7.228;2024-02-23T01:23:26;7.10;99.90
6581;DHT22;3324;50.796;7.228;2024-02-23T01:25:52;7.10;99.90
6581;DHT22;3324;50.796;7.228;2024-02-23T01:28:17;7.10;99.90
6581;DHT22;3324;50.796;7.228;2024-02-23T01:30:43;7.10;99.90
6581;DHT22;3324;50.796;7.228;2024-02-23T01:33:08;7.00;99.90
6581;DHT22;3324;50.796;7.228;2024-02-23T01:35:41;7.10;99.90
6581;DHT22;3324;50.796;7.228;2024-02-23T01:38:25;7.10;99.90
6581;DHT22;3324;50.796;7.228;2024-02-23T01:40:56;7.00;99.90
6581;DHT22;3324;50.796;7.228;2024-02-23T01:43:22;7.00;99.90
6581;DHT22;3324;50.796;7.228;2024-02-23T01:45:48;7.00;99.90
6581;DHT22;3324;50.796;7.228;2024-02-23T01:48:13;7.00;99.90
6581;DHT22;3324;50.796;7.228;2024-02-23T01:50:39;6.90;99.90
6581;DHT22;3324;50.796;7.228;2024-02-23T01:53:05;6.90;99.90
6581;DHT22;3324;50.796;7.228;2024-02-23T01:55:30;6.80;99.90
6581;DHT22;3324;50.796;7.228;2024-02-23T01:57:57;6.80;99.90
6581;DHT22;3324;50.796;7.228;2024-02-23T02:00:23;6.80;99.90
6581;DHT22;3324;50.796;7.228;2024-02-23T02:02:48;6.80;99.90
6581;DHT22;3324;50.796;7.228;2024-02-23T02:05:14;6.80;99.90
6581;DHT22;3324;50.796;7.228;2024-02-23T02:07:40;6.70;99.90
6581;DHT22;3324;50.796;7.228;2024-02-23T02:10:06;6.70;99.90
6581;DHT22;3324;50.796;7.228;2024-02-23T02:12:33;6.70;99.90
6581;DHT22;3324;50.796;7.228;2024-02-23T02:14:58;6.80;99.90
6581;DHT22;3324;50.796;7.228;2024-02-23T02:17:27;6.70;99.90
6581;DHT22;3324;50.796;7.228;2024-02-23T02:19:53;6.70;99.90
6581;DHT22;3324;50.796;7.228;2024-02-23T02:22:18;6.80;99.90
6581;DHT22;3324;50.796;7.228;2024-02-23T02:24:44;6.80;99.90
6581;DHT22;3324;50.796;7.228;2024-02-23T02:27:13;6.70;99.90
6581;DHT22;3324;50.796;7.228;2024-02-23T02:29:39;6.80;99.90
6581;DHT22;3324;50.796;7.228;2024-02-23T02:32:04;6.70;99.90
6581;DHT22;3324;50.796;7.228;2024-02-23T02:34:30;6.80;99.90
6581;DHT22;3324;50.796;7.228;2024-02-23T02:36:55;6.80;99.90
6581;DHT22;3324;50.796;7.228;2024-02-23T02:39:21;6.70;99.90
6581;DHT22;3324;50.796;7.228;2024-02-23T02:41:49;6.70;99.90
6581;DHT22;3324;50.796;7.228;2024-02-23T02:44:15;6.70;99.90
6581;DHT22;3324;50.796;7.228;2024-02-23T02:46:41;6.70;99.90
6581;DHT22;3324;50.796;7.228;2024-02-23T02:49:06;6.80;99.90
6581;DHT22;3324;50.796;7.228;2024-02-23T02:51:32;6.80;99.90
6581;DHT22;3324;50.796;7.228;2024-02-23T02:53:57;6.80;99.90
6581;DHT22;3324;50.796;7.228;2024-02-23T02:56:23;6.80;99.90
6581;DHT22;3324;50.796;7.228;2024-02-23T02:58:48;6.80;99.90
6581;DHT22;3324;50.796;7.228;2024-02-23T03:01:14;6.80;99.90
6581;DHT22;3324;50.796;7.228;2024-02-23T03:03:39;6.80;99.90
6581;DHT22;3324;50.796;7.228;2024-02-23T03:06:05;6.70;99.90
6581;DHT22;3324;50.796;7.228;2024-02-23T03:08:31;6.80;99.90
6581;DHT22;3324;50.796;7.228;2024-02-23T03:10:57;6.70;99.90
6581;DHT22;3324;50.796;7.228;2024-02-23T03:13:22;6.80;99.90
6581;DHT22;3324;50.796;7.228;2024-02-23T03:15:48;6.80;99.90
6581;DHT22;3324;50.796;7.228;2024-02-23T03:18:13;6.80;99.90
6581;DHT22;3324;50.796;7.228;2024-02-23T03:20:41;6.60;99.90
6581;DHT22;3324;50.796;7.228;2024-02-23T03:23:07;6.60;99.90
6581;DHT22;3324;50.796;7.228;2024-02-23T03:25:32;6.70;99.90
6581;DHT22;3324;50.796;7.228;2024-02-23T03:27:58;6.60;99.90
6581;DHT22;3324;50.796;7.228;2024-02-23T03:30:23;6.50;99.90
6581;DHT22;3324;50.796;7.228;2024-02-23T03:32:49;6.50;99.90
6581;DHT22;3324;50.796;7.228;2024-02-23T03:35:14;6.50;99.90
6581;DHT22;3324;50.796;7.228;2024-02-23T03:37:40;6.50;99.90
6581;DHT22;3324;50.796;7.228;2024-02-23T03:40:06;6.50;99.90
6581;DHT22;3324;50.796;7.228;2024-02-23T03:42:31;6.40;99.90
6581;DHT22;3324;50.796;7.228;2024-02-23T03:44:57;6.40;99.90
6581;DHT22;3324;50.796;7.228;2024-02-23T03:47:22;6.40;99.90
6581;DHT22;3324;50.796;7.228;2024-02-23T03:49:48;6.50;99.90
6581;DHT22;3324;50.796;7.228;2024-02-23T03:52:13;6.50;99.90
6581;DHT22;3324;50.796;7.228;2024-02-23T03:54:39;6.50;99.90
6581;DHT22;3324;50.796;7.228;2024-02-23T03:57:04;6.50;99.90
6581;DHT22;3324;50.796;7.228;2024-02-23T03:59:30;6.40;99.90
6581;DHT22;3324;50.796;7.228;2024-02-23T04:01:55;6.50;99.90
6581;DHT22;3324;50.796;7.228;2024-02-23T04:04:21;6.60;99.90
6581;DHT22;3324;50.796;7.228;2024-02-23T04:06:46;6.50;99.90
6581;DHT22;3324;50.796;7.228;2024-02-23T04:09:12;6.60;99.90
6581;DHT22;3324;50.796;7.228;2024-02-23T04:11:37;6.60;99.90
6581;DHT22;3324;50.796;7.228;2024-02-23T04:14:03;6.70;99.90
6581;DHT22;3324;50.796;7.228;2024-02-23T04:16:30;6.70;99.90
6581;DHT22;3324;50.796;7.228;2024-02-23T04:18:56;6.80;99.90
6581;DHT22;3324;50.796;7.228;2024-02-23T04:21:21;6.70;99.90
6581;DHT22;3324;50.796;7.228;2024-02-23T04:23:47;6.70;99.90
6581;DHT22;3324;50.796;7.228;2024-02-23T04:26:13;6.60;99.90
6581;DHT22;3324;50.796;7.228;2024-02-23T04:28:41;6.60;99.90
6581;DHT22;3324;50.796;7.228;2024-02-23T04:31:07;6.50;99.90
6581;DHT22;3324;50.796;7.228;2024-02-23T04:33:34;6.50;99.90
6581;DHT22;3324;50.796;7.228;2024-02-23T04:35:59;6.50;99.90
6581;DHT22;3324;50.796;7.228;2024-02-23T04:38:25;6.50;99.90
6581;DHT22;3324;50.796;7.228;2024-02-23T04:40:50;6.60;99.90
6581;DHT22;3324;50.796;7.228;2024-02-23T04:43:16;6.60;99.90
6581;DHT22;3324;50.796;7.228;2024-02-23T04:45:41;6.60;99.90
6581;DHT22;3324;50.796;7.228;2024-02-23T04:48:07;6.60;99.90
6581;DHT22;3324;50.796;7.228;2024-02-23T04:50:32;6.60;99.90
6581;DHT22;3324;50.796;7.228;2024-02-23T04:52:58;6.50;99.90
6581;DHT22;3324;50.796;7.228;2024-02-23T04:55:23;6.50;99.90
6581;DHT22;3324;50.796;7.228;2024-02-23T04:57:49;6.50;99.90
6581;DHT22;3324;50.796;7.228;2024-02-23T05:00:14;6.50;99.90
6581;DHT22;3324;50.796;7.228;2024-02-23T05:02:40;6.40;99.90
6581;DHT22;3324;50.796;7.228;2024-02-23T05:05:05;6.40;99.90
6581;DHT22;3324;50.796;7.228;2024-02-23T05:07:31;6.40;99.90
6581;DHT22;3324;50.796;7.228;2024-02-23T05:09:57;6.50;99.90
6581;DHT22;3324;50.796;7.228;2024-02-23T05:12:23;6.40;99.90
6581;DHT22;3324;50.796;7.228;2024-02-23T05:14:48;6.40;99.90
6581;DHT22;3324;50.796;7.228;2024-02-23T05:17:14;6.40;99.90
6581;DHT22;3324;50.796;7.228;2024-02-23T05:19:39;6.40;99.90
6581;DHT22;3324;50.796;7.228;2024-02-23T05:22:05;6.30;99.90
6581;DHT22;3324;50.796;7.228;2024-02-23T05:24:30;6.30;99.90
6581;DHT22;3324;50.796;7.228;2024-02-23T05:26:56;6.30;99.90
6581;DHT22;3324;50.796;7.228;2024-02-23T05:29:23;6.30;99.90
6581;DHT22;3324;50.796;7.228;2024-02-23T05:31:49;6.30;99.90
6581;DHT22;3324;50.796;7.228;2024-02-23T05:34:15;6.30;99.90
6581;DHT22;3324;50.796;7.228;2024-02-23T05:36:40;6.30;99.90
6581;DHT22;3324;50.796;7.228;2024-02-23T05:39:06;6.30;99.90
6581;DHT22;3324;50.796;7.228;2024-02-23T05:41:33;6.20;99.90
6581;DHT22;3324;50.796;7.228;2024-02-23T05:43:58;6.20;99.90
6581;DHT22;3324;50.796;7.228;2024-02-23T05:46:24;6.20;99.90
6581;DHT22;3324;50.796;7.228;2024-02-23T05:48:49;6.20;99.90
6581;DHT22;3324;50.796;7.228;2024-02-23T05:51:15;6.20;99.90
6581;DHT22;3324;50.796;7.228;2024-02-23T05:53:40;6.10;99.90
6581;DHT22;3324;50.796;7.228;2024-02-23T05:56:06;6.10;99.90
6581;DHT22;3324;50.796;7.228;2024-02-23T05:58:31;6.10;99.90
6581;DHT22;3324;50.796;7.228;2024-02-23T06:00:57;6.10;99.90
6581;DHT22;3324;50.796;7.228;2024-02-23T06:03:22;6.20;99.90
6581;DHT22;3324;50.796;7.228;2024-02-23T06:05:48;6.20;99.90
6581;DHT22;3324;50.796;7.228;2024-02-23T06:08:13;6.10;99.90
6581;DHT22;3324;50.796;7.228;2024-02-23T06:10:39;6.10;99.90
6581;DHT22;3324;50.796;7.228;2024-02-23T06:13:04;6.10;99.90
6581;DHT22;3324;50.796;7.228;2024-02-23T06:15:30;6.20;99.90
6581;DHT22;3324;50.796;7.228;2024-02-23T06:17:55;6.10;99.90
6581;DHT22;3324;50.796;7.228;2024-02-23T06:20:20;6.10;99.90
6581;DHT22;3324;50.796;7.228;2024-02-23T06:22:46;6.10;99.90
6581;DHT22;3324;50.796;7.228;2024-02-23T06:25:11;6.20;99.90
6581;DHT22;3324;50.796;7.228;2024-02-23T06:27:37;6.20;99.90
6581;DHT22;3324;50.796;7.228;2024-02-23T06:30:03;6.10;99.90
6581;DHT22;3324;50.796;7.228;2024-02-23T06:32:29;6.20;99.90
6581;DHT22;3324;50.796;7.228;2024-02-23T06:34:54;6.20;99.90
6581;DHT22;3324;50.796;7.228;2024-02-23T06:37:20;6.20;99.90
6581;DHT22;3324;50.796;7.228;2024-02-23T06:39:45;6.20;99.90
6581;DHT22;3324;50.796;7.228;2024-02-23T06:42:15;6.20;99.90
6581;DHT22;3324;50.796;7.228;2024-02-23T06:44:40;6.20;99.90
6581;DHT22;3324;50.796;7.228;2024-02-23T06:47:06;6.20;99.90
6581;DHT22;3324;50.796;7.228;2024-02-23T06:49:31;6.20;99.90
6581;DHT22;3324;50.796;7.228;2024-02-23T06:51:57;6.30;99.90
6581;DHT22;3324;50.796;7.228;2024-02-23T06:54:22;6.30;99.90
6581;DHT22;3324;50.796;7.228;2024-02-23T06:56:48;6.30;99.90
6581;DHT22;3324;50.796;7.228;2024-02-23T06:59:13;6.40;99.90
6581;DHT22;3324;50.796;7.228;2024-02-23T07:01:48;6.40;99.90
6581;DHT22;3324;50.796;7.228;2024-02-23T07:04:14;6.50;99.90
6581;DHT22;3324;50.796;7.228;2024-02-23T07:06:40;6.50;99.90
6581;DHT22;3324;50.796;7.228;2024-02-23T07:09:05;6.50;99.90
6581;DHT22;3324;50.796;7.228;2024-02-23T07:11:31;6.50;99.90
6581;DHT22;3324;50.796;7.228;2024-02-23T07:13:56;6.60;99.90
6581;DHT22;3324;50.796;7.228;2024-02-23T07:16:21;6.70;99.90
6581;DHT22;3324;50.796;7.228;2024-02-23T07:18:47;6.70;99.90
6581;DHT22;3324;50.796;7.228;2024-02-23T07:21:12;6.70;99.90
6581;DHT22;3324;50.796;7.228;2024-02-23T07:23:38;6.70;99.90
6581;DHT22;3324;50.796;7.228;2024-02-23T07:26:03;6.70;99.90
6581;DHT22;3324;50.796;7.228;2024-02-23T07:28:29;6.80;99.90
6581;DHT22;3324;50.796;7.228;2024-02-23T07:30:54;6.80;99.90
6581;DHT22;3324;50.796;7.228;2024-02-23T07:33:20;6.80;99.90
6581;DHT22;3324;50.796;7.228;2024-02-23T07:35:46;6.90;99.90
6581;DHT22;3324;50.796;7.228;2024-02-23T07:38:11;6.90;99.90
6581;DHT22;3324;50.796;7.228;2024-02-23T07:40:37;6.90;99.90
6581;DHT22;3324;50.796;7.228;2024-02-23T07:43:02;6.90;99.90
6581;DHT22;3324;50.796;7.228;2024-02-23T07:45:28;7.00;99.90
6581;DHT22;3324;50.796;7.228;2024-02-23T07:47:53;7.00;99.90
6581;DHT22;3324;50.796;7.228;2024-02-23T07:50:19;7.10;99.90
6581;DHT22;3324;50.796;7.228;2024-02-23T07:52:44;7.10;99.90
6581;DHT22;3324;50.796;7.228;2024-02-23T07:55:10;7.10;99.90
6581;DHT22;3324;50.796;7.228;2024-02-23T07:57:36;7.10;99.90
6581;DHT22;3324;50.796;7.228;2024-02-23T08:00:01;7.20;99.90
6581;DHT22;3324;50.796;7.228;2024-02-23T08:02:27;7.20;99.90
6581;DHT22;3324;50.796;7.228;2024-02-23T08:04:52;7.30;99.90
6581;DHT22;3324;50.796;7.228;2024-02-23T08:07:18;7.30;99.90
6581;DHT22;3324;50.796;7.228;2024-02-23T08:09:43;7.30;99.90
6581;DHT22;3324;50.796;7.228;2024-02-23T08:12:09;7.40;99.90
6581;DHT22;3324;50.796;7.228;2024-02-23T08:14:36;7.40;99.90
6581;DHT22;3324;50.796;7.228;2024-02-23T08:17:02;7.50;99.90
6581;DHT22;3324;50.796;7.228;2024-02-23T08:19:27;7.50;99.90
6581;DHT22;3324;50.796;7.228;2024-02-23T08:21:53;7.60;99.90
6581;DHT22;3324;50.796;7.228;2024-02-23T08:24:18;7.60;99.90
6581;DHT22;3324;50.796;7.228;2024-02-23T08:26:46;7.60;99.90
6581;DHT22;3324;50.796;7.228;2024-02-23T08:29:13;7.70;99.90
6581;DHT22;3324;50.796;7.228;2024-02-23T08:31:38;7.70;99.90
6581;DHT22;3324;50.796;7.228;2024-02-23T08:34:04;7.80;99.90
6581;DHT22;3324;50.796;7.228;2024-02-23T08:36:29;7.80;99.90
6581;DHT22;3324;50.796;7.228;2024-02-23T08:38:55;7.80;99.90
6581;DHT22;3324;50.796;7.228;2024-02-23T08:41:20;7.70;99.90
6581;DHT22;3324;50.796;7.228;2024-02-23T08:43:46;7.80;99.90
6581;DHT22;3324;50.796;7.228;2024-02-23T08:46:11;7.90;99.90
6581;DHT22;3324;50.796;7.228;2024-02-23T08:48:38;7.80;99.90
6581;DHT22;3324;50.796;7.228;2024-02-23T08:51:03;7.80;99.90
6581;DHT22;3324;50.796;7.228;2024-02-23T08:53:29;7.80;99.90
6581;DHT22;3324;50.796;7.228;2024-02-23T08:55:54;7.80;99.90
6581;DHT22;3324;50.796;7.228;2024-02-23T08:58:20;7.90;99.90
6581;DHT22;3324;50.796;7.228;2024-02-23T09:00:45;7.90;99.90
6581;DHT22;3324;50.796;7.228;2024-02-23T09:03:11;7.90;99.90
6581;DHT22;3324;50.796;7.228;2024-02-23T09:05:36;8.00;99.90
6581;DHT22;3324;50.796;7.228;2024-02-23T09:08:02;8.00;99.90
6581;DHT22;3324;50.796;7.228;2024-02-23T09:10:27;8.10;99.90
6581;DHT22;3324;50.796;7.228;2024-02-23T09:12:53;8.10;99.90
6581;DHT22;3324;50.796;7.228;2024-02-23T09:15:18;8.10;99.90
6581;DHT22;3324;50.796;7.228;2024-02-23T09:17:43;8.10;99.90
6581;DHT22;3324;50.796;7.228;2024-02-23T09:20:09;8.10;99.90
6581;DHT22;3324;50.796;7.228;2024-02-23T09:22:35;8.10;99.90
6581;DHT22;3324;50.796;7.228;2024-02-23T09:25:02;8.10;99.90
6581;DHT22;3324;50.796;7.228;2024-02-23T09:27:28;8.20;99.90
6581;DHT22;3324;50.796;7.228;2024-02-23T09:29:53;8.50;99.90
6581;DHT22;3324;50.796;7.228;2024-02-23T09:32:19;8.60;99.90
6581;DHT22;3324;50.796;7.228;2024-02-23T09:34:44;8.80;99.90
6581;DHT22;3324;50.796;7.228;2024-02-23T09:37:10;8.80;99.90
6581;DHT22;3324;50.796;7.228;2024-02-23T09:39:35;8.70;99.90
6581;DHT22;3324;50.796;7.228;2024-02-23T09:42:03;8.60;99.90
6581;DHT22;3324;50.796;7.228;2024-02-23T09:44:32;8.60;99.90
6581;DHT22;3324;50.796;7.228;2024-02-23T09:47:03;8.70;99.90
6581;DHT22;3324;50.796;7.228;2024-02-23T09:49:38;9.00;99.90
6581;DHT22;3324;50.796;7.228;2024-02-23T09:52:06;9.10;99.90
6581;DHT22;3324;50.796;7.228;2024-02-23T09:54:33;9.20;99.90
6581;DHT22;3324;50.796;7.228;2024-02-23T09:56:58;9.20;99.90
6581;DHT22;3324;50.796;7.228;2024-02-23T09:59:24;9.00;99.90
6581;DHT22;3324;50.796;7.228;2024-02-23T10:01:53;8.80;99.90
6581;DHT22;3324;50.796;7.228;2024-02-23T10:04:19;8.70;99.90
6581;DHT22;3324;50.796;7.228;2024-02-23T10:06:44;8.70;99.90
6581;DHT22;3324;50.796;7.228;2024-02-23T10:09:10;8.60;99.90
6581;DHT22;3324;50.796;7.228;2024-02-23T10:11:37;8.60;99.90
6581;DHT22;3324;50.796;7.228;2024-02-23T10:14:03;8.70;99.90
6581;DHT22;3324;50.796;7.228;2024-02-23T10:16:29;8.70;99.90
6581;DHT22;3324;50.796;7.228;2024-02-23T10:18:54;8.80;99.90
6581;DHT22;3324;50.796;7.228;2024-02-23T10:21:20;8.70;99.90
6581;DHT22;3324;50.796;7.228;2024-02-23T10:23:45;8.80;99.90
6581;DHT22;3324;50.796;7.228;2024-02-23T10:26:11;8.70;99.90
6581;DHT22;3324;50.796;7.228;2024-02-23T10:28:37;8.80;99.90
6581;DHT22;3324;50.796;7.228;2024-02-23T10:31:04;8.80;99.90
6581;DHT22;3324;50.796;7.228;2024-02-23T10:33:29;8.80;99.90
6581;DHT22;3324;50.796;7.228;2024-02-23T10:35:56;8.80;99.90
6581;DHT22;3324;50.796;7.228;2024-02-23T10:38:26;8.90;99.90
6581;DHT22;3324;50.796;7.228;2024-02-23T10:40:51;8.90;99.90
6581;DHT22;3324;50.796;7.228;2024-02-23T10:43:19;9.00;99.90
6581;DHT22;3324;50.796;7.228;2024-02-23T10:45:46;9.10;99.90
6581;DHT22;3324;50.796;7.228;2024-02-23T10:48:12;9.20;99.90
6581;DHT22;3324;50.796;7.228;2024-02-23T10:50:39;9.20;99.90
6581;DHT22;3324;50.796;7.228;2024-02-23T10:53:07;9.30;99.90
6581;DHT22;3324;50.796;7.228;2024-02-23T10:55:34;9.40;99.90
6581;DHT22;3324;50.796;7.228;2024-02-23T10:58:02;9.30;99.90
6581;DHT22;3324;50.796;7.228;2024-02-23T11:00:28;9.20;99.90
6581;DHT22;3324;50.796;7.228;2024-02-23T11:02:54;9.20;99.90
6581;DHT22;3324;50.796;7.228;2024-02-23T11:05:20;9.20;99.90
6581;DHT22;3324;50.796;7.228;2024-02-23T11:07:46;9.20;99.90
6581;DHT22;3324;50.796;7.228;2024-02-23T11:10:14;9.20;99.90
6581;DHT22;3324;50.796;7.228;2024-02-23T11:12:40;9.10;99.90
6581;DHT22;3324;50.796;7.228;2024-02-23T11:15:05;9.10;99.90
6581;DHT22;3324;50.796;7.228;2024-02-23T11:17:32;9.10;99.90
6581;DHT22;3324;50.796;7.228;2024-02-23T11:19:58;9.10;99.90
6581;DHT22;3324;50.796;7.228;2024-02-23T11:22:30;9.30;99.90
6581;DHT22;3324;50.796;7.228;2024-02-23T11:25:05;9.40;99.90
6581;DHT22;3324;50.796;7.228;2024-02-23T11:27:31;9.60;99.90
6581;DHT22;3324;50.796;7.228;2024-02-23T11:30:04;9.60;99.90
6581;DHT22;3324;50.796;7.228;2024-02-23T11:35:03;9.60;99.90
6581;DHT22;3324;50.796;7.228;2024-02-23T11:37:30;9.80;99.90
6581;DHT22;3324;50.796;7.228;2024-02-23T11:39:55;9.90;99.90
6581;DHT22;3324;50.796;7.228;2024-02-23T11:42:23;10.00;99.90
6581;DHT22;3324;50.796;7.228;2024-02-23T11:44:49;10.00;99.90
6581;DHT22;3324;50.796;7.228;2024-02-23T11:47:15;10.00;99.90
6581;DHT22;3324;50.796;7.228;2024-02-23T11:49:42;10.00;99.90
6581;DHT22;3324;50.796;7.228;2024-02-23T11:52:07;10.20;99.90
6581;DHT22;3324;50.796;7.228;2024-02-23T11:54:33;10.20;99.90
6581;DHT22;3324;50.796;7.228;2024-02-23T11:56:59;10.20;99.90
6581;DHT22;3324;50.796;7.228;2024-02-23T11:59:25;10.30;99.90
6581;DHT22;3324;50.796;7.228;2024-02-23T12:01:51;10.20;99.90
6581;DHT22;3324;50.796;7.228;2024-02-23T12:04:16;10.10;99.90
6581;DHT22;3324;50.796;7.228;2024-02-23T12:06:42;10.20;99.90
6581;DHT22;3324;50.796;7.228;2024-02-23T12:09:07;10.10;99.90
6581;DHT22;3324;50.796;7.228;2024-02-23T12:11:33;10.10;99.90
6581;DHT22;3324;50.796;7.228;2024-02-23T12:14:00;10.10;99.90
6581;DHT22;3324;50.796;7.228;2024-02-23T12:16:27;10.10;99.90
6581;DHT22;3324;50.796;7.228;2024-02-23T12:18:53;10.00;99.90
6581;DHT22;3324;50.796;7.228;2024-02-23T12:21:20;10.00;99.90
6581;DHT22;3324;50.796;7.228;2024-02-23T12:23:47;9.90;99.90
6581;DHT22;3324;50.796;7.228;2024-02-23T12:26:13;9.90;99.90
6581;DHT22;3324;50.796;7.228;2024-02-23T12:28:39;10.00;99.90
6581;DHT22;3324;50.796;7.228;2024-02-23T12:31:05;10.00;99.90
6581;DHT22;3324;50.796;7.228;2024-02-23T12:33:31;9.90;99.90
6581;DHT22;3324;50.796;7.228;2024-02-23T12:35:58;9.90;99.90
6581;DHT22;3324;50.796;7.228;2024-02-23T12:38:23;9.90;99.90
6581;DHT22;3324;50.796;7.228;2024-02-23T12:40:49;9.90;99.90
6581;DHT22;3324;50.796;7.228;2024-02-23T12:43:15;9.90;99.90
6581;DHT22;3324;50.796;7.228;2024-02-23T12:45:41;9.70;99.90
6581;DHT22;3324;50.796;7.228;2024-02-23T12:48:06;9.70;99.90
6581;DHT22;3324;50.796;7.228;2024-02-23T12:50:32;9.70;99.90
6581;DHT22;3324;50.796;7.228;2024-02-23T12:52:57;9.80;99.90
6581;DHT22;3324;50.796;7.228;2024-02-23T12:55:23;9.80;99.90
6581;DHT22;3324;50.796;7.228;2024-02-23T12:57:49;9.80;99.90
6581;DHT22;3324;50.796;7.228;2024-02-23T13:00:15;9.70;99.90
6581;DHT22;3324;50.796;7.228;2024-02-23T13:02:40;9.60;99.90
6581;DHT22;3324;50.796;7.228;2024-02-23T13:05:06;9.70;99.90
6581;DHT22;3324;50.796;7.228;2024-02-23T13:07:32;9.90;99.90
6581;DHT22;3324;50.796;7.228;2024-02-23T13:09:57;10.00;99.90
6581;DHT22;3324;50.796;7.228;2024-02-23T13:12:23;10.20;99.90
6581;DHT22;3324;50.796;7.228;2024-02-23T13:14:50;10.10;99.90
6581;DHT22;3324;50.796;7.228;2024-02-23T13:17:16;10.00;99.90
6581;DHT22;3324;50.796;7.228;2024-02-23T13:19:42;10.00;99.90
6581;DHT22;3324;50.796;7.228;2024-02-23T13:22:08;10.00;99.90
6581;DHT22;3324;50.796;7.228;2024-02-23T13:24:33;10.10;99.90
6581;DHT22;3324;50.796;7.228;2024-02-23T13:26:59;10.30;99.90
6581;DHT22;3324;50.796;7.228;2024-02-23T13:29:25;10.50;99.90
6581;DHT22;3324;50.796;7.228;2024-02-23T13:31:50;10.60;99.90
6581;DHT22;3324;50.796;7.228;2024-02-23T13:34:15;10.50;99.90
6581;DHT22;3324;50.796;7.228;2024-02-23T13:36:43;10.20;99.90
6581;DHT22;3324;50.796;7.228;2024-02-23T13:39:09;10.10;99.90
6581;DHT22;3324;50.796;7.228;2024-02-23T13:41:34;10.10;99.90
6581;DHT22;3324;50.796;7.228;2024-02-23T13:44:00;10.20;99.90
6581;DHT22;3324;50.796;7.228;2024-02-23T13:46:25;10.20;99.90
6581;DHT22;3324;50.796;7.228;2024-02-23T13:49:01;10.20;99.90
6581;DHT22;3324;50.796;7.228;2024-02-23T13:51:27;10.10;99.90
6581;DHT22;3324;50.796;7.228;2024-02-23T13:53:52;10.10;99.90
6581;DHT22;3324;50.796;7.228;2024-02-23T13:56:18;10.10;99.90
6581;DHT22;3324;50.796;7.228;2024-02-23T13:58:43;10.10;99.90
6581;DHT22;3324;50.796;7.228;2024-02-23T14:01:09;10.10;99.90
6581;DHT22;3324;50.796;7.228;2024-02-23T14:03:34;10.20;99.90
6581;DHT22;3324;50.796;7.228;2024-02-23T14:06:00;10.30;99.90
6581;DHT22;3324;50.796;7.228;2024-02-23T14:08:26;10.30;99.90
6581;DHT22;3324;50.796;7.228;2024-02-23T14:10:52;10.40;99.90
6581;DHT22;3324;50.796;7.228;2024-02-23T14:13:18;10.30;99.90
6581;DHT22;3324;50.796;7.228;2024-02-23T14:15:43;10.40;99.90
6581;DHT22;3324;50.796;7.228;2024-02-23T14:18:09;10.40;99.90
6581;DHT22;3324;50.796;7.228;2024-02-23T14:20:35;10.40;99.90
6581;DHT22;3324;50.796;7.228;2024-02-23T14:23:00;10.50;99.90
6581;DHT22;3324;50.796;7.228;2024-02-23T14:25:26;10.50;99.90
6581;DHT22;3324;50.796;7.228;2024-02-23T14:27:51;10.50;99.90
6581;DHT22;3324;50.796;7.228;2024-02-23T14:30:17;10.40;99.90
6581;DHT22;3324;50.796;7.228;2024-02-23T14:32:43;10.50;99.90
6581;DHT22;3324;50.796;7.228;2024-02-23T14:35:08;10.50;99.90
6581;DHT22;3324;50.796;7.228;2024-02-23T14:37:34;10.50;99.90
6581;DHT22;3324;50.796;7.228;2024-02-23T14:40:00;10.60;99.90
6581;DHT22;3324;50.796;7.228;2024-02-23T14:42:25;10.70;99.90
6581;DHT22;3324;50.796;7.228;2024-02-23T14:44:51;10.80;99.90
6581;DHT22;3324;50.796;7.228;2024-02-23T14:47:16;10.70;99.90
6581;DHT22;3324;50.796;7.228;2024-02-23T14:49:42;10.80;99.90
6581;DHT22;3324;50.796;7.228;2024-02-23T14:52:07;10.80;99.90
6581;DHT22;3324;50.796;7.228;2024-02-23T14:54:33;10.90;99.90
6581;DHT22;3324;50.796;7.228;2024-02-23T14:56:59;10.80;99.90
6581;DHT22;3324;50.796;7.228;2024-02-23T14:59:24;10.70;99.90
6581;DHT22;3324;50.796;7.228;2024-02-23T15:01:49;10.60;99.90
6581;DHT22;3324;50.796;7.228;2024-02-23T15:04:15;10.60;99.90
6581;DHT22;3324;50.796;7.228;2024-02-23T15:06:40;10.60;99.90
6581;DHT22;3324;50.796;7.228;2024-02-23T15:09:06;10.60;99.90
6581;DHT22;3324;50.796;7.228;2024-02-23T15:11:32;10.50;99.90
6581;DHT22;3324;50.796;7.228;2024-02-23T15:13:57;10.50;99.90
6581;DHT22;3324;50.796;7.228;2024-02-23T15:16:24;10.40;99.90
6581;DHT22;3324;50.796;7.228;2024-02-23T15:18:50;10.30;99.90
6581;DHT22;3324;50.796;7.228;2024-02-23T15:21:15;10.30;99.90
6581;DHT22;3324;50.796;7.228;2024-02-23T15:23:43;10.30;99.90
6581;DHT22;3324;50.796;7.228;2024-02-23T15:26:08;10.30;99.90
6581;DHT22;3324;50.796;7.228;2024-02-23T15:28:34;10.30;99.90
6581;DHT22;3324;50.796;7.228;2024-02-23T15:31:00;10.30;99.90
6581;DHT22;3324;50.796;7.228;2024-02-23T15:33:27;10.30;99.90
6581;DHT22;3324;50.796;7.228;2024-02-23T15:35:53;10.20;99.90
6581;DHT22;3324;50.796;7.228;2024-02-23T15:38:18;10.20;99.90
6581;DHT22;3324;50.796;7.228;2024-02-23T15:40:44;10.20;99.90
6581;DHT22;3324;50.796;7.228;2024-02-23T15:43:09;10.20;99.90
6581;DHT22;3324;50.796;7.228;2024-02-23T15:45:35;10.20;99.90
6581;DHT22;3324;50.796;7.228;2024-02-23T15:48:00;10.20;99.90
6581;DHT22;3324;50.796;7.228;2024-02-23T15:50:26;10.20;99.90
6581;DHT22;3324;50.796;7.228;2024-02-23T15:52:53;10.10;99.90
6581;DHT22;3324;50.796;7.228;2024-02-23T15:55:19;10.10;99.90
6581;DHT22;3324;50.796;7.228;2024-02-23T15:57:44;10.10;99.90
6581;DHT22;3324;50.796;7.228;2024-02-23T16:00:10;10.00;99.90
6581;DHT22;3324;50.796;7.228;2024-02-23T16:02:36;10.00;99.90
6581;DHT22;3324;50.796;7.228;2024-02-23T16:05:02;9.90;99.90
6581;DHT22;3324;50.796;7.228;2024-02-23T16:07:28;9.90;99.90